createdAt,value
2022-08-26T00:02:12.044Z,58.56
2022-08-26T00:04:43.216Z,58.50
2022-08-26T00:07:10.701Z,58.93
2022-08-26T00:09:40.071Z,58.59
2022-08-26T00:12:09.351Z,59.09
2022-08-26T00:14:42.981Z,59.71
2022-08-26T00:17:10.716Z,59.84
2022-08-26T00:19:38.285Z,60.46
2022-08-26T00:22:05.966Z,59.84
2022-08-26T00:24:33.278Z,59.95
2022-08-26T00:27:00.524Z,60.74
2022-08-26T00:29:28.168Z,60.82
2022-08-26T00:31:59.177Z,60.73
2022-08-26T00:34:26.313Z,62.00
2022-08-26T00:36:54.144Z,62.41
2022-08-26T00:39:22.731Z,62.62
2022-08-26T00:41:50.017Z,62.53
2022-08-26T00:44:19.019Z,62.50
2022-08-26T00:46:55.545Z,63.11
2022-08-26T00:49:43.943Z,62.21
2022-08-26T00:52:19.999Z,63.75
2022-08-26T00:55:00.411Z,63.83
2022-08-26T00:57:28.199Z,64.13
2022-08-26T00:59:58.980Z,64.01
2022-08-26T01:02:27.206Z,64.34
2022-08-26T01:05:00.477Z,64.02
2022-08-26T01:07:31.342Z,65.42
2022-08-26T01:10:06.532Z,64.89
2022-08-26T01:12:40.336Z,64.80
2022-08-26T01:15:13.174Z,65.58
2022-08-26T01:17:44.278Z,66.28
2022-08-26T01:21:07.662Z,66.12
2022-08-26T01:23:40.126Z,66.42
2022-08-26T01:26:19.954Z,65.56
2022-08-26T01:28:51.697Z,65.36
2022-08-26T01:31:24.270Z,65.89
2022-08-26T01:34:02.109Z,66.33
2022-08-26T01:36:32.819Z,65.07
2022-08-26T01:39:00.013Z,65.53
2022-08-26T01:41:29.088Z,66.17
2022-08-26T01:43:56.825Z,66.44
2022-08-26T01:46:26.817Z,65.85
2022-08-26T01:48:57.194Z,66.01
2022-08-26T01:51:25.717Z,66.39
2022-08-26T01:53:53.965Z,66.33
2022-08-26T01:56:23.277Z,65.89
2022-08-26T01:58:55.536Z,65.69
2022-08-26T02:01:29.230Z,66.18
2022-08-26T02:04:20.565Z,66.22
2022-08-26T02:06:48.347Z,66.60
2022-08-26T02:09:18.662Z,66.35
2022-08-26T02:11:47.514Z,66.34
2022-08-26T02:14:32.323Z,65.76
2022-08-26T02:17:03.397Z,66.28
2022-08-26T02:19:38.966Z,66.86
2022-08-26T02:22:13.688Z,67.15
2022-08-26T02:24:56.043Z,66.65
2022-08-26T02:27:34.545Z,67.04
2022-08-26T02:30:18.000Z,66.06
2022-08-26T02:32:46.019Z,65.91
2022-08-26T02:35:20.325Z,67.04
2022-08-26T02:37:49.333Z,66.40
2022-08-26T02:40:21.840Z,65.88
2022-08-26T02:42:49.877Z,66.86
2022-08-26T02:45:23.052Z,66.78
2022-08-26T02:47:51.655Z,66.77
2022-08-26T02:50:20.436Z,66.64
2022-08-26T02:52:48.093Z,66.86
2022-08-26T02:55:15.759Z,66.24
2022-08-26T02:57:43.426Z,66.06
2022-08-26T03:00:14.670Z,66.22
2022-08-26T03:02:42.148Z,66.96
2022-08-26T03:05:11.093Z,66.90
2022-08-26T03:07:39.287Z,66.24
2022-08-26T03:10:08.749Z,66.10
2022-08-26T03:12:36.757Z,65.55
2022-08-26T03:15:15.871Z,65.43
2022-08-26T03:17:47.761Z,65.43
2022-08-26T03:20:17.313Z,65.75
2022-08-26T03:22:45.492Z,65.53
2022-08-26T03:25:15.993Z,65.01
2022-08-26T03:27:43.421Z,65.98
2022-08-26T03:30:31.022Z,65.83
2022-08-26T03:32:58.409Z,65.29
2022-08-26T03:35:26.063Z,65.68
2022-08-26T03:37:53.761Z,66.07
2022-08-26T03:40:22.349Z,65.93
2022-08-26T03:42:50.588Z,66.44
2022-08-26T03:45:19.193Z,66.46
2022-08-26T03:47:47.751Z,66.41
2022-08-26T03:50:22.705Z,66.31
2022-08-26T03:52:52.651Z,66.30
2022-08-26T03:55:23.773Z,66.28
2022-08-26T03:57:52.638Z,66.10
2022-08-26T04:00:20.501Z,65.93
2022-08-26T04:02:50.728Z,65.61
2022-08-26T04:05:22.855Z,64.96
2022-08-26T04:07:51.878Z,64.89
2022-08-26T04:10:28.537Z,64.72
2022-08-26T04:12:59.825Z,64.36
2022-08-26T04:15:27.662Z,63.74
2022-08-26T04:17:55.909Z,63.81
2022-08-26T04:20:26.494Z,64.06
2022-08-26T04:22:53.922Z,63.80
2022-08-26T04:25:24.615Z,63.57
2022-08-26T04:27:52.481Z,63.28
2022-08-26T04:30:20.314Z,62.94
2022-08-26T04:32:49.792Z,63.26
2022-08-26T04:35:18.060Z,63.28
2022-08-26T04:37:45.878Z,62.97
2022-08-26T04:40:33.325Z,62.96
2022-08-26T04:43:15.970Z,62.57
2022-08-26T04:46:04.071Z,62.19
2022-08-26T04:49:11.154Z,61.68
2022-08-26T04:53:21.676Z,61.67
2022-08-26T04:56:12.664Z,61.72
2022-08-26T04:58:40.856Z,61.61
2022-08-26T05:01:08.830Z,61.59
2022-08-26T05:03:36.488Z,61.59
2022-08-26T05:06:05.271Z,61.42
2022-08-26T05:08:32.661Z,61.11
2022-08-26T05:11:07.564Z,61.25
2022-08-26T05:13:38.708Z,60.88
2022-08-26T05:16:11.675Z,60.30
2022-08-26T05:18:40.923Z,59.92
2022-08-26T05:21:24.256Z,59.32
2022-08-26T05:23:54.280Z,58.61
2022-08-26T05:26:24.594Z,58.63
2022-08-26T05:28:54.965Z,58.19
2022-08-26T05:31:27.828Z,57.72
2022-08-26T05:33:57.062Z,57.63
2022-08-26T05:36:27.754Z,57.60
2022-08-26T05:38:57.610Z,57.15
2022-08-26T05:41:34.171Z,56.91
2022-08-26T05:44:05.649Z,56.66
2022-08-26T05:46:34.417Z,55.98
2022-08-26T05:49:03.566Z,56.31
2022-08-26T05:51:31.011Z,55.24
2022-08-26T05:54:01.495Z,55.60
2022-08-26T05:56:30.800Z,54.30
2022-08-26T05:59:02.348Z,52.25
2022-08-26T06:01:35.461Z,50.13
2022-08-26T06:04:03.919Z,49.49
2022-08-26T06:06:34.645Z,49.65
2022-08-26T06:09:03.930Z,50.06
2022-08-26T06:11:32.515Z,49.43
2022-08-26T06:14:04.403Z,49.17
2022-08-26T06:16:37.770Z,48.99
2022-08-26T06:19:10.917Z,48.26
2022-08-26T06:21:41.513Z,47.35
2022-08-26T06:24:31.315Z,47.47
2022-08-26T06:27:05.668Z,47.34
2022-08-26T06:29:36.156Z,46.92
2022-08-26T06:32:06.308Z,46.76
2022-08-26T06:34:33.713Z,46.54
2022-08-26T06:37:02.394Z,47.03
2022-08-26T06:39:31.385Z,46.63
2022-08-26T06:42:00.572Z,46.98
2022-08-26T06:44:28.079Z,46.97
2022-08-26T06:46:55.504Z,45.67
2022-08-26T06:49:27.222Z,45.73
2022-08-26T06:51:59.161Z,45.63
2022-08-26T06:54:29.870Z,45.46
2022-08-26T06:56:57.845Z,45.42
2022-08-26T06:59:25.611Z,45.29
2022-08-26T07:01:54.055Z,46.04
2022-08-26T07:04:22.331Z,45.04
2022-08-26T07:06:52.808Z,44.75
2022-08-26T07:09:23.141Z,44.74
2022-08-26T07:11:51.468Z,44.74
2022-08-26T07:14:21.236Z,44.32
2022-08-26T07:16:50.547Z,44.44
2022-08-26T07:19:31.210Z,44.10
2022-08-26T07:22:03.627Z,43.77
2022-08-26T07:24:35.367Z,44.09
2022-08-26T07:27:08.767Z,43.74
2022-08-26T07:29:38.555Z,43.91
2022-08-26T07:32:07.410Z,43.46
2022-08-26T07:34:35.036Z,43.67
2022-08-26T07:37:02.428Z,43.47
2022-08-26T07:39:31.506Z,43.35
2022-08-26T07:42:01.624Z,42.59
2022-08-26T07:44:37.059Z,42.33
2022-08-26T07:47:16.479Z,42.24
2022-08-26T07:49:56.085Z,42.31
2022-08-26T07:52:27.554Z,41.93
2022-08-26T07:54:57.560Z,41.76
2022-08-26T07:57:26.284Z,41.98
2022-08-26T07:59:55.222Z,42.05
2022-08-26T08:02:24.952Z,41.88
2022-08-26T08:04:57.345Z,41.19
2022-08-26T08:07:44.620Z,40.57
2022-08-26T08:10:21.290Z,40.92
2022-08-26T08:12:50.139Z,40.42
2022-08-26T08:15:20.646Z,40.50
2022-08-26T08:17:47.978Z,40.31
2022-08-26T08:20:18.859Z,40.54
2022-08-26T08:22:47.193Z,39.86
2022-08-26T08:25:15.722Z,40.10
2022-08-26T08:27:48.134Z,40.18
2022-08-26T08:30:22.902Z,39.76
2022-08-26T08:32:52.282Z,39.10
2022-08-26T08:35:22.017Z,39.01
2022-08-26T08:37:53.767Z,38.19
2022-08-26T08:40:24.479Z,37.95
2022-08-26T08:43:15.327Z,36.29
2022-08-26T08:45:54.602Z,36.54
2022-08-26T08:48:28.020Z,36.46
2022-08-26T08:51:04.224Z,36.51
2022-08-26T08:53:44.269Z,35.80
2022-08-26T08:56:39.125Z,35.25
2022-08-26T08:59:32.450Z,35.01
2022-08-26T09:02:18.775Z,34.75
2022-08-26T09:05:15.324Z,35.31
2022-08-26T09:08:02.072Z,34.59
2022-08-26T09:10:43.604Z,34.67
2022-08-26T09:13:25.124Z,34.17
2022-08-26T09:16:08.449Z,34.20
2022-08-26T09:18:59.011Z,34.50
2022-08-26T09:21:26.701Z,34.84
2022-08-26T09:23:57.024Z,34.50
2022-08-26T09:26:29.230Z,34.50
2022-08-26T09:29:08.568Z,34.28
2022-08-26T09:31:41.152Z,34.46
2022-08-26T09:34:24.967Z,34.74
2022-08-26T09:36:58.239Z,34.06
2022-08-26T09:39:37.684Z,34.46
2022-08-26T09:42:12.523Z,34.35
2022-08-26T09:45:07.101Z,34.08
2022-08-26T09:47:43.357Z,33.54
2022-08-26T09:50:37.773Z,33.80
2022-08-26T09:53:12.889Z,33.63
2022-08-26T09:55:47.366Z,33.29
2022-08-26T09:58:35.291Z,33.63
2022-08-26T10:01:10.331Z,33.19
2022-08-26T10:03:39.117Z,33.39
2022-08-26T10:06:21.321Z,33.14
2022-08-26T10:09:08.885Z,32.65
2022-08-26T10:11:48.000Z,32.37
2022-08-26T10:14:32.511Z,32.86
2022-08-26T10:17:11.398Z,33.47
2022-08-26T10:19:56.838Z,33.05
2022-08-26T10:22:37.213Z,33.18
2022-08-26T10:25:09.351Z,32.26
2022-08-26T10:27:53.466Z,31.77
2022-08-26T10:30:30.822Z,31.34
2022-08-26T10:33:07.915Z,31.68
2022-08-26T10:35:46.367Z,31.17
2022-08-26T10:38:19.855Z,30.78
2022-08-26T10:40:52.929Z,30.48
2022-08-26T10:43:25.542Z,30.48
2022-08-26T10:45:59.458Z,30.66
2022-08-26T10:48:56.860Z,30.23
2022-08-26T10:51:35.943Z,29.98
2022-08-26T10:54:28.707Z,29.93
2022-08-26T10:57:11.842Z,29.42
2022-08-26T11:00:18.709Z,29.43
2022-08-26T11:02:54.563Z,28.28
2022-08-26T11:05:30.396Z,28.23
2022-08-26T11:08:58.084Z,27.69
2022-08-26T11:11:39.434Z,27.26
2022-08-26T11:14:29.104Z,26.55
2022-08-26T11:16:59.911Z,25.89
2022-08-26T11:20:07.426Z,26.66
2022-08-26T11:23:01.735Z,25.42
2022-08-26T11:26:35.759Z,25.11
2022-08-26T11:30:13.614Z,24.67
2022-08-26T11:33:00.872Z,24.36
2022-08-26T11:35:37.535Z,24.59
2022-08-26T11:38:29.093Z,23.66
2022-08-26T11:41:11.179Z,23.09
2022-08-26T11:43:43.569Z,23.33
2022-08-26T11:46:12.544Z,24.28
2022-08-26T11:48:43.202Z,24.88
2022-08-26T11:51:24.115Z,24.70
2022-08-26T11:53:51.563Z,23.89
2022-08-26T11:56:32.608Z,23.85
2022-08-26T11:59:07.361Z,24.11
2022-08-26T12:01:41.720Z,23.93
2022-08-26T12:04:17.598Z,24.11
2022-08-26T12:06:52.458Z,24.32
2022-08-26T12:09:36.689Z,25.59
2022-08-26T12:12:37.370Z,24.67
2022-08-26T12:15:21.392Z,23.63
2022-08-26T12:17:54.399Z,23.83
2022-08-26T12:20:53.416Z,23.53
2022-08-26T12:23:36.412Z,23.49
2022-08-26T12:26:12.139Z,23.74
2022-08-26T12:29:01.786Z,23.58
2022-08-26T12:31:47.418Z,23.42
2022-08-26T12:34:17.707Z,23.97
2022-08-26T12:39:37.276Z,23.90
2022-08-26T12:42:16.331Z,24.21
2022-08-26T12:44:53.343Z,25.15
2022-08-26T12:47:43.203Z,23.74
2022-08-26T12:50:20.559Z,23.53
2022-08-26T12:53:08.331Z,23.84
2022-08-26T12:55:52.369Z,24.36
2022-08-26T12:58:35.630Z,24.66
2022-08-26T13:01:08.483Z,24.23
2022-08-26T13:03:39.866Z,23.76
2022-08-26T13:06:30.818Z,23.75
2022-08-26T13:09:07.187Z,23.36
2022-08-26T13:11:55.388Z,23.42
2022-08-26T13:14:24.604Z,23.17
2022-08-26T13:16:53.008Z,23.61
2022-08-26T13:19:23.582Z,23.71
2022-08-26T13:21:54.326Z,23.90
2022-08-26T13:24:44.418Z,23.82
2022-08-26T13:27:14.493Z,24.15
2022-08-26T13:29:41.698Z,23.46
2022-08-26T13:32:09.185Z,23.13
2022-08-26T13:34:37.199Z,23.24
2022-08-26T13:37:04.969Z,23.00
2022-08-26T13:39:32.696Z,23.41
2022-08-26T13:41:59.933Z,23.20
2022-08-26T13:44:27.284Z,23.48
2022-08-26T13:46:54.426Z,23.92
2022-08-26T13:49:22.155Z,24.27
2022-08-26T13:51:49.282Z,24.75
2022-08-26T13:54:16.501Z,24.29
2022-08-26T13:56:43.918Z,24.87
2022-08-26T13:59:11.123Z,25.30
2022-08-26T14:01:39.859Z,24.98
2022-08-26T14:04:07.788Z,25.17
2022-08-26T14:06:35.166Z,25.05
2022-08-26T14:09:02.667Z,25.10
2022-08-26T14:11:29.951Z,24.82
2022-08-26T14:14:08.439Z,24.95
2022-08-26T14:16:37.679Z,24.65
2022-08-26T14:19:24.763Z,24.36
2022-08-26T14:21:52.411Z,25.06
2022-08-26T14:24:19.604Z,24.78
2022-08-26T14:26:48.025Z,24.25
2022-08-26T14:29:16.703Z,25.19
2022-08-26T14:31:44.956Z,25.02
2022-08-26T14:34:12.898Z,25.07
2022-08-26T14:36:40.031Z,24.64
2022-08-26T14:39:11.180Z,24.64
2022-08-26T14:41:54.443Z,24.77
2022-08-26T14:44:29.047Z,25.25
2022-08-26T14:47:02.299Z,25.11
2022-08-26T14:49:30.906Z,25.05
2022-08-26T14:51:58.532Z,25.23
2022-08-26T14:54:25.882Z,25.71
2022-08-26T14:56:58.040Z,26.19
2022-08-26T14:59:29.290Z,25.84
2022-08-26T15:01:57.649Z,26.01
2022-08-26T15:04:27.668Z,26.22
2022-08-26T15:07:01.329Z,26.31
2022-08-26T15:09:40.774Z,26.32
2022-08-26T15:12:12.546Z,26.99
2022-08-26T15:14:42.515Z,27.03
2022-08-26T15:17:17.059Z,26.88
2022-08-26T15:19:49.836Z,26.84
2022-08-26T15:22:29.816Z,27.12
2022-08-26T15:25:14.844Z,27.06
2022-08-26T15:27:50.285Z,27.39
2022-08-26T15:30:19.808Z,27.61
2022-08-26T15:32:49.520Z,27.80
2022-08-26T15:35:18.674Z,27.96
2022-08-26T15:37:45.881Z,27.86
2022-08-26T15:40:13.341Z,28.15
2022-08-26T15:42:40.643Z,27.86
2022-08-26T15:45:08.188Z,27.95
2022-08-26T15:47:35.548Z,28.11
2022-08-26T15:50:25.008Z,28.55
2022-08-26T15:52:52.330Z,28.44
2022-08-26T15:55:20.244Z,28.70
2022-08-26T15:57:51.136Z,28.59
2022-08-26T16:00:20.223Z,28.79
2022-08-26T16:02:47.977Z,28.62
2022-08-26T16:05:15.419Z,28.64
2022-08-26T16:07:42.727Z,28.68
2022-08-26T16:10:10.403Z,28.56
2022-08-26T16:12:38.024Z,28.71
2022-08-26T16:15:06.761Z,28.76
2022-08-26T16:17:34.107Z,28.83
2022-08-26T16:20:02.139Z,28.88
2022-08-26T16:22:30.951Z,28.98
2022-08-26T16:25:00.700Z,28.96
2022-08-26T16:27:47.987Z,29.03
2022-08-26T16:30:41.997Z,29.24
2022-08-26T16:33:36.834Z,29.48
2022-08-26T16:36:11.034Z,29.78
2022-08-26T16:38:41.869Z,29.78
2022-08-26T16:41:09.842Z,29.91
2022-08-26T16:43:37.463Z,30.06
2022-08-26T16:46:17.378Z,30.34
2022-08-26T16:48:45.470Z,30.71
2022-08-26T16:51:15.846Z,30.65
2022-08-26T16:53:44.089Z,30.63
2022-08-26T16:56:20.450Z,30.88
2022-08-26T16:58:48.110Z,30.81
2022-08-26T17:01:16.372Z,31.13
2022-08-26T17:03:43.836Z,31.33
2022-08-26T17:06:11.769Z,31.48
2022-08-26T17:08:41.190Z,31.62
2022-08-26T17:11:09.684Z,31.88
2022-08-26T17:13:44.239Z,32.17
2022-08-26T17:16:14.625Z,32.43
2022-08-26T17:18:41.897Z,32.94
2022-08-26T17:21:12.583Z,33.14
2022-08-26T17:23:41.586Z,33.28
2022-08-26T17:26:11.341Z,33.57
2022-08-26T17:28:39.555Z,33.76
2022-08-26T17:31:10.462Z,33.90
2022-08-26T17:33:39.477Z,33.97
2022-08-26T17:36:08.887Z,34.27
2022-08-26T17:38:38.132Z,34.32
2022-08-26T17:41:13.912Z,34.66
2022-08-26T17:43:41.728Z,34.81
2022-08-26T17:46:11.126Z,35.14
2022-08-26T17:48:40.460Z,35.43
2022-08-26T17:51:16.453Z,35.42
2022-08-26T17:53:44.530Z,35.64
2022-08-26T17:56:15.100Z,35.88
2022-08-26T17:58:50.957Z,36.01
2022-08-26T18:01:21.671Z,35.93
2022-08-26T18:04:00.479Z,36.24
2022-08-26T18:06:29.997Z,36.32
2022-08-26T18:08:57.971Z,36.45
2022-08-26T18:11:26.517Z,36.40
2022-08-26T18:13:53.865Z,36.30
2022-08-26T18:16:21.163Z,36.34
2022-08-26T18:18:52.810Z,36.43
2022-08-26T18:21:25.775Z,36.61
2022-08-26T18:23:54.041Z,37.17
2022-08-26T18:26:25.899Z,37.30
2022-08-26T18:28:53.407Z,37.34
2022-08-26T18:31:21.298Z,37.87
2022-08-26T18:33:48.645Z,38.02
2022-08-26T18:36:28.997Z,38.18
2022-08-26T18:38:57.325Z,38.50
2022-08-26T18:41:34.357Z,39.11
2022-08-26T18:44:01.537Z,39.43
2022-08-26T18:46:28.924Z,38.66
2022-08-26T18:48:57.160Z,39.21
2022-08-26T18:51:29.134Z,39.83
2022-08-26T18:53:57.217Z,39.48
2022-08-26T18:56:25.606Z,39.73
2022-08-26T18:58:54.931Z,40.19
2022-08-26T19:01:26.629Z,39.98
2022-08-26T19:04:01.868Z,40.05
2022-08-26T19:06:32.425Z,40.57
2022-08-26T19:09:00.384Z,41.03
2022-08-26T19:11:32.476Z,42.14
2022-08-26T19:14:09.880Z,42.79
2022-08-26T19:16:38.453Z,42.70
2022-08-26T19:19:06.294Z,42.91
2022-08-26T19:21:35.865Z,43.42
2022-08-26T19:24:08.881Z,43.94
2022-08-26T19:26:39.156Z,43.81
2022-08-26T19:29:12.690Z,43.70
2022-08-26T19:31:41.791Z,44.12
2022-08-26T19:34:18.333Z,43.64
2022-08-26T19:36:52.819Z,43.99
2022-08-26T19:39:20.788Z,43.92
2022-08-26T19:41:48.450Z,43.77
2022-08-26T19:44:38.585Z,44.41
2022-08-26T19:47:08.736Z,44.53
2022-08-26T19:49:37.006Z,44.53
2022-08-26T19:52:08.527Z,45.28
2022-08-26T19:54:36.498Z,45.71
2022-08-26T19:57:04.654Z,45.50
2022-08-26T19:59:35.701Z,45.75
2022-08-26T20:02:14.339Z,45.73
2022-08-26T20:04:45.326Z,46.62
2022-08-26T20:07:18.130Z,46.80
2022-08-26T20:09:47.762Z,45.81
2022-08-26T20:12:16.951Z,45.72
2022-08-26T20:14:45.042Z,47.10
2022-08-26T20:17:12.796Z,46.96
2022-08-26T20:19:58.843Z,46.99
2022-08-26T20:22:26.585Z,46.74
2022-08-26T20:24:54.625Z,47.21
2022-08-26T20:27:27.244Z,47.37
2022-08-26T20:30:08.730Z,47.99
2022-08-26T20:32:40.433Z,48.44
2022-08-26T20:35:12.185Z,48.28
2022-08-26T20:37:40.480Z,48.73
2022-08-26T20:40:10.828Z,48.83
2022-08-26T20:42:38.301Z,48.78
2022-08-26T20:45:10.254Z,49.56
2022-08-26T20:47:37.927Z,48.98
2022-08-26T20:50:05.727Z,49.21
2022-08-26T20:52:33.022Z,49.23
2022-08-26T20:55:00.390Z,49.71
2022-08-26T20:57:28.148Z,52.44
2022-08-26T20:59:55.842Z,52.17
2022-08-26T21:02:23.782Z,51.42
2022-08-26T21:04:53.206Z,52.14
2022-08-26T21:07:20.502Z,50.92
2022-08-26T21:09:49.650Z,51.22
2022-08-26T21:12:18.999Z,51.72
2022-08-26T21:14:49.509Z,51.93
2022-08-26T21:17:17.030Z,51.70
2022-08-26T21:19:44.449Z,51.79
2022-08-26T21:22:11.846Z,52.38
2022-08-26T21:24:39.252Z,51.72
2022-08-26T21:27:06.720Z,52.25
2022-08-26T21:29:35.686Z,52.05
2022-08-26T21:32:03.784Z,52.10
2022-08-26T21:34:31.180Z,53.13
2022-08-26T21:36:58.530Z,53.06
2022-08-26T21:39:25.921Z,52.82
2022-08-26T21:41:53.816Z,52.57
2022-08-26T21:44:21.569Z,53.06
2022-08-26T21:46:51.047Z,52.90
2022-08-26T21:49:18.309Z,53.57
2022-08-26T21:51:48.077Z,52.71
2022-08-26T21:54:17.632Z,53.70
2022-08-26T21:56:46.692Z,53.00
2022-08-26T21:59:18.375Z,54.54
2022-08-26T22:01:47.848Z,55.59
2022-08-26T22:04:16.427Z,55.23
2022-08-26T22:06:47.668Z,55.59
2022-08-26T22:09:19.973Z,56.14
2022-08-26T22:11:47.580Z,55.51
2022-08-26T22:14:16.678Z,54.55
2022-08-26T22:16:50.170Z,54.25
2022-08-26T22:19:20.425Z,54.24
2022-08-26T22:21:53.304Z,55.84
2022-08-26T22:24:23.414Z,56.36
2022-08-26T22:26:51.590Z,56.54
2022-08-26T22:29:19.173Z,55.78
2022-08-26T22:31:46.565Z,55.73
2022-08-26T22:34:16.840Z,56.38
2022-08-26T22:36:47.534Z,56.13
2022-08-26T22:39:19.568Z,55.67
2022-08-26T22:41:48.070Z,54.94
2022-08-26T22:44:17.740Z,55.31
2022-08-26T22:46:45.724Z,54.49
2022-08-26T22:49:15.901Z,55.20
2022-08-26T22:51:44.999Z,56.22
2022-08-26T22:54:13.894Z,55.42
2022-08-26T22:56:41.513Z,55.71
2022-08-26T22:59:11.335Z,55.98
2022-08-26T23:01:41.885Z,56.12
2022-08-26T23:04:10.571Z,56.18
2022-08-26T23:06:40.596Z,56.28
2022-08-26T23:09:09.162Z,56.66
2022-08-26T23:11:39.424Z,56.60
2022-08-26T23:14:10.749Z,56.47
2022-08-26T23:16:41.180Z,56.66
2022-08-26T23:19:10.883Z,56.79
2022-08-26T23:21:38.899Z,56.50
2022-08-26T23:24:07.759Z,56.23
2022-08-26T23:26:35.781Z,56.68
2022-08-26T23:29:05.826Z,57.26
2022-08-26T23:31:33.650Z,57.26
2022-08-26T23:34:19.752Z,57.36
2022-08-26T23:36:47.906Z,57.64
2022-08-26T23:39:15.496Z,57.51
2022-08-26T23:41:42.846Z,56.93
2022-08-26T23:44:11.868Z,57.87
2022-08-26T23:46:39.155Z,57.12
2022-08-26T23:49:06.532Z,57.99
2022-08-26T23:51:52.493Z,58.79
2022-08-26T23:54:20.160Z,59.32
2022-08-26T23:56:47.894Z,58.60
2022-08-26T23:59:15.155Z,59.59
